Terminal Aerodrome Forecast
Issued by NWS

Home | Current Version | Previous Version | Text Only | Print | Product List | Glossary On
Versions: 1 2 3 4 5 6 7 8 9 10 11 12 13 14 15 16 17 18 19 20 21 22 23
425
FTUS44 KBMX 200533
TAFEET
TAF
KEET 200533Z 2006/2106 00000KT P6SM SKC
     FM200800 00000KT 3SM BR SKC
     FM201000 00000KT 2SM BR SKC
      TEMPO 2010/2013 1SM BR BKN004
     FM201500 VRB03KT P6SM SCT050=

USA.gov is the U.S. government's official web portal to all federal, state and local government web resources and services.